sensor_id;sensor_type;location;lat;lon;timestamp;temperature;humidity
68109;SHT30;54893;49.864;19.084;2023-10-08T00:00:52;17.09;78.38
68109;SHT30;54893;49.864;19.084;2023-10-08T00:05:56;17.15;78.25
68109;SHT30;54893;49.864;19.084;2023-10-08T00:10:56;17.19;78.05
68109;SHT30;54893;49.864;19.084;2023-10-08T00:15:57;16.99;78.75
68109;SHT30;54893;49.864;19.084;2023-10-08T00:20:57;17.03;78.59
68109;SHT30;54893;49.864;19.084;2023-10-08T00:26:15;17.03;78.66
68109;SHT30;54893;49.864;19.084;2023-10-08T00:31:18;16.97;78.73
68109;SHT30;54893;49.864;19.084;2023-10-08T00:36:19;16.96;78.72
68109;SHT30;54893;49.864;19.084;2023-10-08T00:41:20;17.06;78.45
68109;SHT30;54893;49.864;19.084;2023-10-08T00:46:28;17.07;78.70
68109;SHT30;54893;49.864;19.084;2023-10-08T00:51:34;16.93;78.80
68109;SHT30;54893;49.864;19.084;2023-10-08T00:56:41;17.00;78.67
68109;SHT30;54893;49.864;19.084;2023-10-08T01:01:56;16.96;78.93
68109;SHT30;54893;49.864;19.084;2023-10-08T01:07:05;16.86;79.24
68109;SHT30;54893;49.864;19.084;2023-10-08T01:12:21;16.80;79.57
68109;SHT30;54893;49.864;19.084;2023-10-08T01:17:23;16.72;79.66
68109;SHT30;54893;49.864;19.084;2023-10-08T01:22:31;16.69;79.95
68109;SHT30;54893;49.864;19.084;2023-10-08T01:27:33;16.53;80.43
68109;SHT30;54893;49.864;19.084;2023-10-08T01:32:34;16.71;80.41
68109;SHT30;54893;49.864;19.084;2023-10-08T01:37:35;16.45;80.95
68109;SHT30;54893;49.864;19.084;2023-10-08T01:42:36;16.51;80.89
68109;SHT30;54893;49.864;19.084;2023-10-08T01:47:39;16.49;80.99
68109;SHT30;54893;49.864;19.084;2023-10-08T01:52:39;16.58;80.67
68109;SHT30;54893;49.864;19.084;2023-10-08T01:57:41;16.47;80.92
68109;SHT30;54893;49.864;19.084;2023-10-08T02:02:43;16.52;80.83
68109;SHT30;54893;49.864;19.084;2023-10-08T02:07:43;16.51;81.09
68109;SHT30;54893;49.864;19.084;2023-10-08T02:12:44;16.53;80.70
68109;SHT30;54893;49.864;19.084;2023-10-08T02:17:45;16.39;81.08
68109;SHT30;54893;49.864;19.084;2023-10-08T02:22:45;16.51;80.68
68109;SHT30;54893;49.864;19.084;2023-10-08T02:27:46;16.49;80.77
68109;SHT30;54893;49.864;19.084;2023-10-08T02:32:48;16.42;81.06
68109;SHT30;54893;49.864;19.084;2023-10-08T02:37:49;16.39;81.63
68109;SHT30;54893;49.864;19.084;2023-10-08T02:42:50;16.05;83.71
68109;SHT30;54893;49.864;19.084;2023-10-08T02:47:50;15.71;87.30
68109;SHT30;54893;49.864;19.084;2023-10-08T02:52:52;14.97;91.10
68109;SHT30;54893;49.864;19.084;2023-10-08T02:57:53;14.42;94.28
68109;SHT30;54893;49.864;19.084;2023-10-08T03:02:54;13.44;92.90
68109;SHT30;54893;49.864;19.084;2023-10-08T03:07:54;12.26;94.00
68109;SHT30;54893;49.864;19.084;2023-10-08T03:12:55;12.06;93.34
68109;SHT30;54893;49.864;19.084;2023-10-08T03:17:56;11.50;95.21
68109;SHT30;54893;49.864;19.084;2023-10-08T03:22:57;11.36;94.61
68109;SHT30;54893;49.864;19.084;2023-10-08T03:27:59;11.13;95.50
68109;SHT30;54893;49.864;19.084;2023-10-08T03:32:59;11.19;96.13
68109;SHT30;54893;49.864;19.084;2023-10-08T03:38:01;11.16;96.06
68109;SHT30;54893;49.864;19.084;2023-10-08T03:43:20;10.63;97.35
68109;SHT30;54893;49.864;19.084;2023-10-08T03:48:24;10.65;96.22
68109;SHT30;54893;49.864;19.084;2023-10-08T03:53:25;10.46;96.79
68109;SHT30;54893;49.864;19.084;2023-10-08T03:58:25;10.21;97.38
68109;SHT30;54893;49.864;19.084;2023-10-08T04:03:30;10.34;96.66
68109;SHT30;54893;49.864;19.084;2023-10-08T04:08:51;10.08;97.37
68109;SHT30;54893;49.864;19.084;2023-10-08T04:14:09;9.88;98.78
68109;SHT30;54893;49.864;19.084;2023-10-08T04:19:10;9.85;98.40
68109;SHT30;54893;49.864;19.084;2023-10-08T04:24:11;9.88;99.71
68109;SHT30;54893;49.864;19.084;2023-10-08T04:29:14;9.97;98.19
68109;SHT30;54893;49.864;19.084;2023-10-08T04:34:16;9.95;99.01
68109;SHT30;54893;49.864;19.084;2023-10-08T04:39:17;10.04;97.93
68109;SHT30;54893;49.864;19.084;2023-10-08T04:44:21;10.09;97.67
68109;SHT30;54893;49.864;19.084;2023-10-08T04:49:22;9.97;98.03
68109;SHT30;54893;49.864;19.084;2023-10-08T04:54:29;9.84;98.25
68109;SHT30;54893;49.864;19.084;2023-10-08T04:59:30;9.78;98.28
68109;SHT30;54893;49.864;19.084;2023-10-08T05:04:33;9.70;98.95
68109;SHT30;54893;49.864;19.084;2023-10-08T05:09:46;9.75;97.53
68109;SHT30;54893;49.864;19.084;2023-10-08T05:14:52;9.44;98.15
68109;SHT30;54893;49.864;19.084;2023-10-08T05:20:11;9.26;98.01
68109;SHT30;54893;49.864;19.084;2023-10-08T05:25:30;9.19;98.03
68109;SHT30;54893;49.864;19.084;2023-10-08T05:30:40;9.14;97.49
68109;SHT30;54893;49.864;19.084;2023-10-08T05:35:55;9.13;97.49
68109;SHT30;54893;49.864;19.084;2023-10-08T05:41:02;9.13;97.58
68109;SHT30;54893;49.864;19.084;2023-10-08T05:46:04;9.30;96.63
68109;SHT30;54893;49.864;19.084;2023-10-08T05:51:23;9.22;96.72
68109;SHT30;54893;49.864;19.084;2023-10-08T05:56:44;9.22;96.98
68109;SHT30;54893;49.864;19.084;2023-10-08T06:02:07;9.19;97.74
68109;SHT30;54893;49.864;19.084;2023-10-08T06:07:28;9.26;97.57
68109;SHT30;54893;49.864;19.084;2023-10-08T06:12:47;9.19;97.12
68109;SHT30;54893;49.864;19.084;2023-10-08T06:18:01;9.22;97.78
68109;SHT30;54893;49.864;19.084;2023-10-08T06:23:04;9.13;98.53
68109;SHT30;54893;49.864;19.084;2023-10-08T06:28:07;9.20;97.52
68109;SHT30;54893;49.864;19.084;2023-10-08T06:33:10;9.30;97.18
68109;SHT30;54893;49.864;19.084;2023-10-08T06:38:11;9.34;96.97
68109;SHT30;54893;49.864;19.084;2023-10-08T06:43:12;9.40;97.82
68109;SHT30;54893;49.864;19.084;2023-10-08T06:48:14;9.43;96.92
68109;SHT30;54893;49.864;19.084;2023-10-08T06:53:20;9.38;97.50
68109;SHT30;54893;49.864;19.084;2023-10-08T06:58:25;9.44;97.05
68109;SHT30;54893;49.864;19.084;2023-10-08T07:03:26;9.50;97.00
68109;SHT30;54893;49.864;19.084;2023-10-08T07:08:28;9.48;97.00
68109;SHT30;54893;49.864;19.084;2023-10-08T07:13:33;9.50;97.25
68109;SHT30;54893;49.864;19.084;2023-10-08T07:18:36;9.61;96.68
68109;SHT30;54893;49.864;19.084;2023-10-08T07:23:36;9.62;96.59
68109;SHT30;54893;49.864;19.084;2023-10-08T07:28:40;9.65;96.58
68109;SHT30;54893;49.864;19.084;2023-10-08T07:33:46;9.75;96.40
68109;SHT30;54893;49.864;19.084;2023-10-08T07:38:47;9.84;95.80
68109;SHT30;54893;49.864;19.084;2023-10-08T07:43:48;9.91;95.78
68109;SHT30;54893;49.864;19.084;2023-10-08T07:48:58;9.92;95.40
68109;SHT30;54893;49.864;19.084;2023-10-08T07:53:59;9.88;95.17
68109;SHT30;54893;49.864;19.084;2023-10-08T07:58:59;9.87;95.21
68109;SHT30;54893;49.864;19.084;2023-10-08T08:04:00;9.90;95.12
68109;SHT30;54893;49.864;19.084;2023-10-08T08:09:00;9.92;93.78
68109;SHT30;54893;49.864;19.084;2023-10-08T08:14:01;9.73;94.69
68109;SHT30;54893;49.864;19.084;2023-10-08T08:19:07;9.64;95.39
68109;SHT30;54893;49.864;19.084;2023-10-08T08:24:11;9.88;94.79
68109;SHT30;54893;49.864;19.084;2023-10-08T08:29:12;10.01;94.94
68109;SHT30;54893;49.864;19.084;2023-10-08T08:34:15;9.94;94.20
68109;SHT30;54893;49.864;19.084;2023-10-08T08:39:19;9.91;94.41
68109;SHT30;54893;49.864;19.084;2023-10-08T08:44:35;10.14;94.20
68109;SHT30;54893;49.864;19.084;2023-10-08T08:49:42;10.21;94.38
68109;SHT30;54893;49.864;19.084;2023-10-08T08:54:42;10.50;93.49
68109;SHT30;54893;49.864;19.084;2023-10-08T08:59:52;10.68;93.65
68109;SHT30;54893;49.864;19.084;2023-10-08T09:04:55;10.65;92.72
68109;SHT30;54893;49.864;19.084;2023-10-08T09:09:57;10.52;92.25
68109;SHT30;54893;49.864;19.084;2023-10-08T09:15:01;10.83;91.52
68109;SHT30;54893;49.864;19.084;2023-10-08T09:20:03;11.63;89.91
68109;SHT30;54893;49.864;19.084;2023-10-08T09:25:07;11.81;87.94
68109;SHT30;54893;49.864;19.084;2023-10-08T09:30:08;11.75;89.19
68109;SHT30;54893;49.864;19.084;2023-10-08T09:35:10;12.22;86.66
68109;SHT30;54893;49.864;19.084;2023-10-08T09:40:14;12.02;85.99
68109;SHT30;54893;49.864;19.084;2023-10-08T09:45:21;11.92;86.67
68109;SHT30;54893;49.864;19.084;2023-10-08T09:50:28;11.63;86.77
68109;SHT30;54893;49.864;19.084;2023-10-08T09:55:29;11.73;86.02
68109;SHT30;54893;49.864;19.084;2023-10-08T10:00:30;12.32;83.29
68109;SHT30;54893;49.864;19.084;2023-10-08T10:05:34;12.78;80.84
68109;SHT30;54893;49.864;19.084;2023-10-08T10:10:37;13.00;78.94
68109;SHT30;54893;49.864;19.084;2023-10-08T10:15:43;12.63;81.18
68109;SHT30;54893;49.864;19.084;2023-10-08T10:20:46;13.51;78.95
68109;SHT30;54893;49.864;19.084;2023-10-08T10:25:51;12.63;76.11
68109;SHT30;54893;49.864;19.084;2023-10-08T10:30:51;12.95;77.40
68109;SHT30;54893;49.864;19.084;2023-10-08T10:35:52;13.10;68.63
68109;SHT30;54893;49.864;19.084;2023-10-08T10:40:53;12.96;69.93
68109;SHT30;54893;49.864;19.084;2023-10-08T10:46:00;13.42;68.47
68109;SHT30;54893;49.864;19.084;2023-10-08T10:51:23;13.30;70.25
68109;SHT30;54893;49.864;19.084;2023-10-08T10:56:24;13.00;69.64
68109;SHT30;54893;49.864;19.084;2023-10-08T11:01:31;13.57;68.51
68109;SHT30;54893;49.864;19.084;2023-10-08T11:06:46;12.80;68.28
68109;SHT30;54893;49.864;19.084;2023-10-08T11:11:47;12.93;66.74
68109;SHT30;54893;49.864;19.084;2023-10-08T11:16:55;12.93;65.58
68109;SHT30;54893;49.864;19.084;2023-10-08T11:21:55;13.48;67.43
68109;SHT30;54893;49.864;19.084;2023-10-08T11:26:56;13.13;63.43
68109;SHT30;54893;49.864;19.084;2023-10-08T11:32:15;13.02;62.25
68109;SHT30;54893;49.864;19.084;2023-10-08T11:37:30;12.53;62.83
68109;SHT30;54893;49.864;19.084;2023-10-08T11:42:34;13.03;63.92
68109;SHT30;54893;49.864;19.084;2023-10-08T11:47:34;12.73;63.68
68109;SHT30;54893;49.864;19.084;2023-10-08T11:52:36;12.34;60.22
68109;SHT30;54893;49.864;19.084;2023-10-08T11:57:41;12.62;61.04
68109;SHT30;54893;49.864;19.084;2023-10-08T12:02:49;12.66;58.30
68109;SHT30;54893;49.864;19.084;2023-10-08T12:07:52;12.66;59.97
68109;SHT30;54893;49.864;19.084;2023-10-08T12:12:55;12.50;59.86
68109;SHT30;54893;49.864;19.084;2023-10-08T12:17:55;12.86;60.46
68109;SHT30;54893;49.864;19.084;2023-10-08T12:23:08;12.69;60.35
68109;SHT30;54893;49.864;19.084;2023-10-08T12:28:10;12.75;59.49
68109;SHT30;54893;49.864;19.084;2023-10-08T12:33:12;12.79;59.99
68109;SHT30;54893;49.864;19.084;2023-10-08T12:38:16;12.69;60.09
68109;SHT30;54893;49.864;19.084;2023-10-08T12:43:21;12.79;61.15
68109;SHT30;54893;49.864;19.084;2023-10-08T12:53:25;12.80;58.75
68109;SHT30;54893;49.864;19.084;2023-10-08T12:58:49;12.41;58.39
68109;SHT30;54893;49.864;19.084;2023-10-08T13:03:49;12.20;58.14
68109;SHT30;54893;49.864;19.084;2023-10-08T13:08:50;12.75;59.91
68109;SHT30;54893;49.864;19.084;2023-10-08T13:13:57;12.76;60.31
68109;SHT30;54893;49.864;19.084;2023-10-08T13:18:58;12.73;59.57
68109;SHT30;54893;49.864;19.084;2023-10-08T13:23:59;12.66;59.33
68109;SHT30;54893;49.864;19.084;2023-10-08T13:29:00;12.48;60.20
68109;SHT30;54893;49.864;19.084;2023-10-08T13:34:00;12.45;60.14
68109;SHT30;54893;49.864;19.084;2023-10-08T13:39:05;12.28;62.78
68109;SHT30;54893;49.864;19.084;2023-10-08T13:44:09;12.41;59.69
68109;SHT30;54893;49.864;19.084;2023-10-08T13:49:09;12.39;58.85
68109;SHT30;54893;49.864;19.084;2023-10-08T13:54:10;11.92;58.67
68109;SHT30;54893;49.864;19.084;2023-10-08T13:59:11;11.43;61.05
68109;SHT30;54893;49.864;19.084;2023-10-08T14:04:14;11.71;60.97
68109;SHT30;54893;49.864;19.084;2023-10-08T14:09:20;12.10;60.52
68109;SHT30;54893;49.864;19.084;2023-10-08T14:14:22;12.04;60.22
68109;SHT30;54893;49.864;19.084;2023-10-08T14:19:24;11.99;61.72
68109;SHT30;54893;49.864;19.084;2023-10-08T14:24:29;12.14;60.73
68109;SHT30;54893;49.864;19.084;2023-10-08T14:29:32;11.54;59.43
68109;SHT30;54893;49.864;19.084;2023-10-08T14:34:36;11.66;60.44
68109;SHT30;54893;49.864;19.084;2023-10-08T14:39:55;11.36;61.99
68109;SHT30;54893;49.864;19.084;2023-10-08T14:45:13;11.34;61.14
68109;SHT30;54893;49.864;19.084;2023-10-08T14:50:14;11.50;60.03
68109;SHT30;54893;49.864;19.084;2023-10-08T14:55:17;11.26;61.39
68109;SHT30;54893;49.864;19.084;2023-10-08T15:00:22;13.24;59.49
68109;SHT30;54893;49.864;19.084;2023-10-08T15:05:25;15.31;54.28
68109;SHT30;54893;49.864;19.084;2023-10-08T15:10:25;14.95;54.88
68109;SHT30;54893;49.864;19.084;2023-10-08T15:15:27;14.69;58.30
68109;SHT30;54893;49.864;19.084;2023-10-08T15:20:34;12.32;61.16
68109;SHT30;54893;49.864;19.084;2023-10-08T15:25:35;11.03;63.41
68109;SHT30;54893;49.864;19.084;2023-10-08T15:30:35;10.41;64.38
68109;SHT30;54893;49.864;19.084;2023-10-08T15:35:37;10.41;64.87
68109;SHT30;54893;49.864;19.084;2023-10-08T15:40:37;10.19;65.55
68109;SHT30;54893;49.864;19.084;2023-10-08T15:45:37;9.88;67.03
68109;SHT30;54893;49.864;19.084;2023-10-08T15:50:38;9.70;65.82
68109;SHT30;54893;49.864;19.084;2023-10-08T15:55:40;9.73;65.77
68109;SHT30;54893;49.864;19.084;2023-10-08T16:00:42;9.50;66.17
68109;SHT30;54893;49.864;19.084;2023-10-08T16:05:43;9.52;65.99
68109;SHT30;54893;49.864;19.084;2023-10-08T16:10:43;9.33;66.62
68109;SHT30;54893;49.864;19.084;2023-10-08T16:15:44;8.94;68.12
68109;SHT30;54893;49.864;19.084;2023-10-08T16:20:44;8.68;68.63
68109;SHT30;54893;49.864;19.084;2023-10-08T16:25:45;8.49;68.49
68109;SHT30;54893;49.864;19.084;2023-10-08T16:30:49;8.29;69.02
68109;SHT30;54893;49.864;19.084;2023-10-08T16:35:53;8.21;69.45
68109;SHT30;54893;49.864;19.084;2023-10-08T16:40:54;7.99;70.75
68109;SHT30;54893;49.864;19.084;2023-10-08T16:45:54;8.08;70.42
68109;SHT30;54893;49.864;19.084;2023-10-08T16:50:55;7.99;70.61
68109;SHT30;54893;49.864;19.084;2023-10-08T16:55:55;7.71;73.19
68109;SHT30;54893;49.864;19.084;2023-10-08T17:00:56;7.63;71.73
68109;SHT30;54893;49.864;19.084;2023-10-08T17:05:56;7.40;73.10
68109;SHT30;54893;49.864;19.084;2023-10-08T17:10:57;7.27;72.48
68109;SHT30;54893;49.864;19.084;2023-10-08T17:15:57;7.16;72.52
68109;SHT30;54893;49.864;19.084;2023-10-08T17:20:59;7.19;72.53
68109;SHT30;54893;49.864;19.084;2023-10-08T17:25:59;6.97;74.80
68109;SHT30;54893;49.864;19.084;2023-10-08T17:31:00;6.55;77.98
68109;SHT30;54893;49.864;19.084;2023-10-08T17:36:00;6.24;78.15
68109;SHT30;54893;49.864;19.084;2023-10-08T17:41:02;6.29;77.15
68109;SHT30;54893;49.864;19.084;2023-10-08T17:46:02;6.25;75.97
68109;SHT30;54893;49.864;19.084;2023-10-08T17:51:04;6.41;75.68
68109;SHT30;54893;49.864;19.084;2023-10-08T17:56:06;6.34;77.30
68109;SHT30;54893;49.864;19.084;2023-10-08T18:01:08;6.18;77.60
68109;SHT30;54893;49.864;19.084;2023-10-08T18:06:15;5.97;79.04
68109;SHT30;54893;49.864;19.084;2023-10-08T18:11:16;5.78;81.17
68109;SHT30;54893;49.864;19.084;2023-10-08T18:16:19;6.08;77.68
68109;SHT30;54893;49.864;19.084;2023-10-08T18:21:20;6.11;78.35
68109;SHT30;54893;49.864;19.084;2023-10-08T18:26:22;6.14;78.93
68109;SHT30;54893;49.864;19.084;2023-10-08T18:31:23;6.08;79.13
68109;SHT30;54893;49.864;19.084;2023-10-08T18:36:24;5.97;79.51
68109;SHT30;54893;49.864;19.084;2023-10-08T18:41:24;5.90;79.75
68109;SHT30;54893;49.864;19.084;2023-10-08T18:46:26;5.83;80.27
68109;SHT30;54893;49.864;19.084;2023-10-08T18:51:26;6.01;79.86
68109;SHT30;54893;49.864;19.084;2023-10-08T18:56:28;6.11;79.42
68109;SHT30;54893;49.864;19.084;2023-10-08T19:01:28;6.22;77.89
68109;SHT30;54893;49.864;19.084;2023-10-08T19:06:29;6.29;78.56
68109;SHT30;54893;49.864;19.084;2023-10-08T19:11:29;6.39;79.04
68109;SHT30;54893;49.864;19.084;2023-10-08T19:16:32;6.53;79.09
68109;SHT30;54893;49.864;19.084;2023-10-08T19:21:32;6.52;78.82
68109;SHT30;54893;49.864;19.084;2023-10-08T19:26:35;6.53;78.71
68109;SHT30;54893;49.864;19.084;2023-10-08T19:31:35;6.44;79.98
68109;SHT30;54893;49.864;19.084;2023-10-08T19:36:36;6.45;79.75
68109;SHT30;54893;49.864;19.084;2023-10-08T19:41:36;6.49;80.55
68109;SHT30;54893;49.864;19.084;2023-10-08T19:46:37;6.46;80.19
68109;SHT30;54893;49.864;19.084;2023-10-08T19:51:38;6.45;80.33
68109;SHT30;54893;49.864;19.084;2023-10-08T19:56:40;6.59;79.82
68109;SHT30;54893;49.864;19.084;2023-10-08T20:01:41;6.51;80.44
68109;SHT30;54893;49.864;19.084;2023-10-08T20:06:41;6.51;79.78
68109;SHT30;54893;49.864;19.084;2023-10-08T20:11:42;6.49;80.70
68109;SHT30;54893;49.864;19.084;2023-10-08T20:16:43;6.62;80.55
68109;SHT30;54893;49.864;19.084;2023-10-08T20:21:43;6.64;80.62
68109;SHT30;54893;49.864;19.084;2023-10-08T20:26:45;6.71;79.92
68109;SHT30;54893;49.864;19.084;2023-10-08T20:31:45;6.61;81.86
68109;SHT30;54893;49.864;19.084;2023-10-08T20:36:45;6.53;82.30
68109;SHT30;54893;49.864;19.084;2023-10-08T20:41:46;6.55;82.99
68109;SHT30;54893;49.864;19.084;2023-10-08T20:46:46;6.55;83.70
68109;SHT30;54893;49.864;19.084;2023-10-08T20:51:47;6.65;81.16
68109;SHT30;54893;49.864;19.084;2023-10-08T20:56:47;6.72;81.78
68109;SHT30;54893;49.864;19.084;2023-10-08T21:01:49;6.69;81.31
68109;SHT30;54893;49.864;19.084;2023-10-08T21:06:50;6.69;82.02
68109;SHT30;54893;49.864;19.084;2023-10-08T21:11:51;6.67;82.41
68109;SHT30;54893;49.864;19.084;2023-10-08T21:16:51;6.59;83.47
68109;SHT30;54893;49.864;19.084;2023-10-08T21:21:55;6.58;83.67
68109;SHT30;54893;49.864;19.084;2023-10-08T21:26:55;6.59;82.89
68109;SHT30;54893;49.864;19.084;2023-10-08T21:31:55;6.53;82.64
68109;SHT30;54893;49.864;19.084;2023-10-08T21:36:56;6.41;82.94
68109;SHT30;54893;49.864;19.084;2023-10-08T21:41:57;6.17;82.83
68109;SHT30;54893;49.864;19.084;2023-10-08T21:46:57;5.90;83.66
68109;SHT30;54893;49.864;19.084;2023-10-08T21:51:57;5.66;83.68
68109;SHT30;54893;49.864;19.084;2023-10-08T21:56:58;5.46;84.29
68109;SHT30;54893;49.864;19.084;2023-10-08T22:01:58;5.43;85.54
68109;SHT30;54893;49.864;19.084;2023-10-08T22:37:00;4.65;87.15
68109;SHT30;54893;49.864;19.084;2023-10-08T22:42:19;4.58;86.71
68109;SHT30;54893;49.864;19.084;2023-10-08T22:47:24;4.64;85.99
68109;SHT30;54893;49.864;19.084;2023-10-08T22:52:27;4.81;87.32
68109;SHT30;54893;49.864;19.084;2023-10-08T22:57:29;4.78;87.47
68109;SHT30;54893;49.864;19.084;2023-10-08T23:02:30;4.69;87.65
68109;SHT30;54893;49.864;19.084;2023-10-08T23:07:30;4.60;87.84
68109;SHT30;54893;49.864;19.084;2023-10-08T23:12:31;4.47;88.47
68109;SHT30;54893;49.864;19.084;2023-10-08T23:17:32;4.38;89.41
68109;SHT30;54893;49.864;19.084;2023-10-08T23:22:33;4.28;88.27
68109;SHT30;54893;49.864;19.084;2023-10-08T23:27:35;4.10;88.97
68109;SHT30;54893;49.864;19.084;2023-10-08T23:32:35;4.10;87.17
68109;SHT30;54893;49.864;19.084;2023-10-08T23:37:36;3.97;87.50
68109;SHT30;54893;49.864;19.084;2023-10-08T23:42:37;4.05;87.75
68109;SHT30;54893;49.864;19.084;2023-10-08T23:47:45;3.91;88.39
68109;SHT30;54893;49.864;19.084;2023-10-08T23:52:48;3.82;89.11
68109;SHT30;54893;49.864;19.084;2023-10-08T23:57:51;3.89;87.04
